Time;durP1;ratioP1;P1;durP2;ratioP2;P2;SDS_P1;SDS_P2;PMS_P1;PMS_P2;Temp;Humidity;BMP_temperature;BMP_pressure;BME280_temperature;BME280_humidity;BME280_pressure;Samples;Min_cycle;Max_cycle;Signal;HPM_P1;HPM_P2
2021/11/19 00:01:15;;;;;;;38.72;24.05;;;11.80;99.90;;;;;;2079879;28;20370;-70
2021/11/19 00:02:16;;;;;;;39.40;24.10;;;11.80;99.90;;;;;;2072146;28;20347;-70
2021/11/19 00:03:17;;;;;;;34.35;24.33;;;11.80;99.90;;;;;;2072332;28;20044;-70
2021/11/19 00:04:17;;;;;;;47.47;24.55;;;11.80;99.90;;;;;;2072449;28;20026;-70
2021/11/19 00:05:18;;;;;;;36.40;24.38;;;11.80;99.90;;;;;;2072144;28;20025;-70
2021/11/19 00:06:19;;;;;;;39.75;25.55;;;11.80;99.90;;;;;;2072278;28;20030;-70
2021/11/19 00:07:20;;;;;;;36.78;24.95;;;11.80;99.90;;;;;;2071926;28;20033;-69
2021/11/19 00:08:28;;;;;;;40.60;24.45;;;11.80;99.90;;;;;;2071790;28;20030;-70
2021/11/19 00:09:29;;;;;;;38.78;25.40;;;11.80;99.90;;;;;;2072096;28;20521;-70
2021/11/19 00:10:30;;;;;;;43.15;26.80;;;11.90;99.90;;;;;;2072196;28;20034;-70
2021/11/19 00:11:36;;;;;;;41.05;26.35;;;11.90;99.90;;;;;;2071374;28;20613;-70
2021/11/19 00:12:37;;;;;;;38.38;26.08;;;11.90;99.90;;;;;;2070947;28;20057;-70
2021/11/19 00:13:39;;;;;;;37.08;26.38;;;11.90;99.90;;;;;;2066856;28;20018;-70
2021/11/19 00:14:40;;;;;;;38.67;25.65;;;11.90;99.90;;;;;;2072048;28;20068;-69
2021/11/19 00:15:41;;;;;;;43.22;27.02;;;11.90;99.90;;;;;;2071900;28;20040;-69
2021/11/19 00:16:44;;;;;;;39.10;25.45;;;11.90;99.90;;;;;;2072229;28;20026;-70
2021/11/19 00:17:44;;;;;;;37.67;25.00;;;11.90;99.90;;;;;;2072400;28;20576;-70
2021/11/19 00:18:46;;;;;;;39.17;26.67;;;11.90;99.90;;;;;;2071452;28;20529;-69
2021/11/19 00:19:46;;;;;;;36.15;26.13;;;11.90;99.90;;;;;;2072015;28;20050;-70
2021/11/19 00:20:47;;;;;;;34.92;25.67;;;11.90;99.90;;;;;;2071457;28;20022;-70
2021/11/19 00:21:48;;;;;;;41.42;26.98;;;11.90;99.90;;;;;;2071972;28;20875;-70
2021/11/19 00:22:48;;;;;;;36.42;26.38;;;11.90;99.90;;;;;;2071972;28;20504;-70
2021/11/19 00:23:51;;;;;;;35.67;25.42;;;11.90;99.90;;;;;;2072194;28;20075;-69
2021/11/19 00:24:51;;;;;;;36.85;26.02;;;11.90;99.90;;;;;;2072150;28;20929;-69
2021/11/19 00:25:52;;;;;;;43.03;26.23;;;11.90;99.90;;;;;;2072319;28;20413;-69
2021/11/19 00:26:53;;;;;;;39.50;26.92;;;11.90;99.90;;;;;;2071863;28;20029;-70
2021/11/19 00:27:54;;;;;;;36.55;26.23;;;11.90;99.90;;;;;;2072092;28;20034;-69
2021/11/19 00:28:55;;;;;;;37.25;25.60;;;11.90;99.90;;;;;;2071220;28;20029;-70
2021/11/19 00:29:56;;;;;;;40.80;27.17;;;11.90;99.90;;;;;;2071992;28;20490;-70
2021/11/19 00:30:56;;;;;;;39.55;27.85;;;11.90;99.90;;;;;;2071831;28;20490;-70
2021/11/19 00:31:57;;;;;;;35.28;26.27;;;11.90;99.90;;;;;;2072034;28;20034;-70
2021/11/19 00:32:58;;;;;;;36.17;27.50;;;11.90;99.90;;;;;;2071826;28;20451;-69
2021/11/19 00:33:58;;;;;;;36.80;27.25;;;11.90;99.90;;;;;;2072445;28;20374;-70
2021/11/19 00:34:59;;;;;;;40.22;27.77;;;11.90;99.90;;;;;;2071504;28;20026;-70
2021/11/19 00:36:00;;;;;;;34.70;26.35;;;11.90;99.90;;;;;;2071784;28;20022;-70
2021/11/19 00:37:01;;;;;;;37.05;26.33;;;11.90;99.90;;;;;;2071948;28;20022;-70
2021/11/19 00:38:02;;;;;;;34.58;26.60;;;11.90;99.90;;;;;;2071954;28;20977;-70
2021/11/19 00:39:08;;;;;;;35.08;26.83;;;11.90;99.90;;;;;;2071582;28;20022;-70
2021/11/19 00:40:17;;;;;;;41.97;28.80;;;11.90;99.90;;;;;;2071842;28;20160;-69
2021/11/19 00:41:18;;;;;;;33.22;26.45;;;11.90;99.90;;;;;;2072012;28;20022;-70
2021/11/19 00:42:19;;;;;;;34.45;27.70;;;11.90;99.90;;;;;;2072048;28;20458;-70
2021/11/19 00:43:20;;;;;;;35.55;27.33;;;11.90;99.90;;;;;;2071681;28;20398;-70
2021/11/19 00:44:22;;;;;;;40.08;27.77;;;11.90;99.90;;;;;;2071677;28;20383;-70
2021/11/19 00:45:24;;;;;;;39.70;27.05;;;11.90;99.90;;;;;;2071174;28;20822;-70
2021/11/19 00:46:25;;;;;;;35.17;27.50;;;11.90;99.90;;;;;;2071223;28;20033;-69
2021/11/19 00:47:26;;;;;;;37.40;28.45;;;11.90;99.90;;;;;;2063925;28;20022;-70
2021/11/19 00:48:28;;;;;;;35.75;27.08;;;11.90;99.90;;;;;;2071248;28;20100;-70
2021/11/19 00:49:33;;;;;;;36.78;27.83;;;11.90;99.90;;;;;;2071496;28;20115;-70
2021/11/19 00:50:39;;;;;;;38.40;28.92;;;11.90;99.90;;;;;;2071822;28;20022;-70
2021/11/19 00:51:43;;;;;;;38.33;28.13;;;11.90;99.90;;;;;;2071278;28;20036;-70
2021/11/19 00:52:43;;;;;;;33.40;25.63;;;11.90;99.90;;;;;;2072695;28;20025;-70
2021/11/19 00:53:51;;;;;;;34.92;27.80;;;11.90;99.90;;;;;;2076020;28;20061;-70
2021/11/19 00:54:53;;;;;;;37.75;27.58;;;11.90;99.90;;;;;;2073158;28;20057;-69
2021/11/19 00:55:53;;;;;;;32.63;26.58;;;11.90;99.90;;;;;;2071513;28;20033;-70
2021/11/19 00:57:00;;;;;;;36.30;26.70;;;11.90;99.90;;;;;;2072093;28;20037;-70
2021/11/19 00:58:00;;;;;;;36.72;27.50;;;11.90;99.90;;;;;;2071723;28;20053;-70
2021/11/19 00:59:01;;;;;;;37.10;28.08;;;11.90;99.90;;;;;;2071503;28;20026;-70
2021/11/19 01:00:06;;;;;;;34.17;26.63;;;12.00;99.90;;;;;;2071408;28;20029;-70
2021/11/19 01:01:13;;;;;;;34.60;27.15;;;11.90;99.90;;;;;;2071641;28;20026;-70
2021/11/19 01:02:17;;;;;;;37.03;27.98;;;11.90;99.90;;;;;;2071618;28;20457;-70
2021/11/19 01:03:19;;;;;;;35.22;27.38;;;11.90;99.90;;;;;;2071873;28;20113;-70
2021/11/19 01:04:21;;;;;;;32.20;27.15;;;11.90;99.90;;;;;;2071343;28;20025;-70
2021/11/19 01:05:22;;;;;;;35.10;28.40;;;11.90;99.90;;;;;;2071716;28;20105;-70
2021/11/19 01:06:23;;;;;;;36.33;27.65;;;11.90;99.90;;;;;;2071788;28;20026;-70
2021/11/19 01:07:24;;;;;;;30.95;26.92;;;11.90;99.90;;;;;;2071607;28;20032;-69
2021/11/19 01:08:27;;;;;;;34.08;27.08;;;11.90;99.90;;;;;;2071186;28;20482;-71
2021/11/19 01:09:31;;;;;;;31.00;26.58;;;11.90;99.90;;;;;;2071810;28;20034;-70
2021/11/19 01:10:35;;;;;;;36.75;28.13;;;11.90;99.90;;;;;;2071541;28;20040;-70
2021/11/19 01:11:36;;;;;;;33.83;26.95;;;11.90;99.90;;;;;;2071740;28;20028;-70
2021/11/19 01:12:37;;;;;;;35.72;27.40;;;11.90;99.90;;;;;;2071598;28;20033;-70
2021/11/19 01:13:40;;;;;;;33.35;26.35;;;11.90;99.90;;;;;;2071799;28;20017;-69
2021/11/19 01:14:47;;;;;;;36.42;27.45;;;12.00;99.90;;;;;;2071195;28;20036;-70
2021/11/19 01:15:55;;;;;;;32.78;27.38;;;12.00;99.90;;;;;;2070834;28;20029;-70
2021/11/19 01:17:05;;;;;;;29.83;26.58;;;12.00;99.90;;;;;;2071212;28;20617;-70
2021/11/19 01:18:11;;;;;;;34.97;27.13;;;12.00;99.90;;;;;;2071346;28;20112;-70
2021/11/19 01:19:17;;;;;;;31.50;27.65;;;11.90;99.90;;;;;;2072024;28;20061;-70
2021/11/19 01:20:33;;;;;;;32.42;27.08;;;11.90;99.90;;;;;;2071475;28;20056;-70
2021/11/19 01:21:42;;;;;;;31.83;26.73;;;11.90;99.90;;;;;;2071797;28;20137;-70
2021/11/19 01:22:46;;;;;;;32.35;26.30;;;12.00;99.90;;;;;;2071487;28;20105;-70
2021/11/19 01:23:48;;;;;;;34.45;27.50;;;11.90;99.90;;;;;;2071847;28;20029;-70
2021/11/19 01:24:50;;;;;;;32.15;26.60;;;11.90;99.90;;;;;;2071272;28;20045;-69
2021/11/19 01:25:58;;;;;;;32.47;28.70;;;11.90;99.90;;;;;;2071303;28;20041;-70
2021/11/19 01:26:59;;;;;;;32.15;27.63;;;11.90;99.90;;;;;;2071348;28;20026;-70
2021/11/19 01:28:00;;;;;;;32.03;27.83;;;11.90;99.90;;;;;;2071498;28;20100;-70
2021/11/19 01:29:05;;;;;;;32.28;27.05;;;11.90;99.90;;;;;;2071011;28;20068;-69
2021/11/19 01:30:08;;;;;;;32.63;28.73;;;11.90;99.90;;;;;;2071758;28;20121;-70
2021/11/19 01:31:14;;;;;;;32.60;28.05;;;11.90;99.90;;;;;;2071383;28;20069;-70
2021/11/19 01:32:18;;;;;;;33.40;27.08;;;11.90;99.90;;;;;;2071793;28;20538;-69
2021/11/19 01:33:19;;;;;;;32.65;26.60;;;11.90;99.90;;;;;;2071413;28;20025;-69
2021/11/19 01:34:20;;;;;;;33.80;27.75;;;11.90;99.90;;;;;;2071428;28;20026;-70
2021/11/19 01:35:21;;;;;;;33.50;26.48;;;11.90;99.90;;;;;;2071295;28;20026;-70
2021/11/19 01:36:22;;;;;;;32.20;25.67;;;11.90;99.90;;;;;;2071720;28;20091;-70
2021/11/19 01:37:23;;;;;;;32.03;25.73;;;12.00;99.90;;;;;;2071360;28;20615;-70
2021/11/19 01:38:24;;;;;;;34.38;25.40;;;12.00;99.90;;;;;;2071056;28;20655;-70
2021/11/19 01:39:27;;;;;;;31.42;26.58;;;12.00;99.90;;;;;;2071342;28;20029;-70
2021/11/19 01:40:31;;;;;;;32.85;25.83;;;12.00;99.90;;;;;;2071783;28;20033;-70
2021/11/19 01:41:47;;;;;;;32.58;25.15;;;12.00;99.90;;;;;;2071489;28;20477;-70
2021/11/19 01:42:54;;;;;;;31.58;24.95;;;12.00;99.90;;;;;;2071652;28;20032;-70
2021/11/19 01:43:55;;;;;;;29.13;24.83;;;11.90;99.90;;;;;;2071411;28;20031;-70
2021/11/19 01:45:02;;;;;;;29.67;25.40;;;11.90;99.90;;;;;;2071504;28;20514;-70
2021/11/19 01:46:07;;;;;;;29.50;25.88;;;12.00;99.90;;;;;;2068297;28;20129;-70
2021/11/19 01:47:11;;;;;;;35.17;25.92;;;12.00;99.90;;;;;;2071054;28;20049;-70
2021/11/19 01:48:15;;;;;;;28.75;23.98;;;12.00;99.90;;;;;;2071349;28;20026;-70
2021/11/19 01:49:16;;;;;;;31.05;25.42;;;11.90;99.90;;;;;;2068318;28;20783;-70
2021/11/19 01:50:25;;;;;;;30.42;25.45;;;11.90;99.90;;;;;;2071579;28;20497;-70
2021/11/19 01:51:33;;;;;;;31.63;24.40;;;12.00;99.90;;;;;;2071083;28;20506;-70
2021/11/19 01:52:42;;;;;;;32.80;25.38;;;11.90;99.90;;;;;;2071477;28;20029;-70
2021/11/19 01:53:49;;;;;;;36.75;25.55;;;11.90;99.90;;;;;;2071709;28;20034;-70
2021/11/19 01:54:52;;;;;;;31.17;25.17;;;11.90;99.90;;;;;;2071076;28;20034;-70
2021/11/19 01:56:06;;;;;;;34.50;26.10;;;11.90;99.90;;;;;;2071079;28;20030;-70
2021/11/19 01:57:32;;;;;;;35.42;25.73;;;11.90;99.90;;;;;;2071574;28;20029;-70
2021/11/19 01:58:40;;;;;;;32.78;25.25;;;11.90;99.90;;;;;;2071122;28;20061;-70
2021/11/19 02:00:04;;;;;;;39.60;27.15;;;11.90;99.90;;;;;;2071574;28;20037;-70
2021/11/19 02:01:34;;;;;;;36.35;25.88;;;11.90;99.90;;;;;;2071541;28;20041;-70
2021/11/19 02:02:38;;;;;;;35.83;25.42;;;11.90;99.90;;;;;;2060504;28;20038;-70
2021/11/19 02:03:42;;;;;;;35.50;26.05;;;11.90;99.90;;;;;;2071479;28;20064;-70
2021/11/19 02:04:48;;;;;;;37.38;26.25;;;11.90;99.90;;;;;;2070888;28;20026;-70
2021/11/19 02:05:59;;;;;;;35.42;26.50;;;11.90;99.90;;;;;;2070252;28;20026;-70
2021/11/19 02:07:15;;;;;;;34.20;25.02;;;11.90;99.90;;;;;;2069868;28;20103;-70
2021/11/19 02:08:19;;;;;;;33.15;26.00;;;11.90;99.90;;;;;;2062735;28;20030;-70
2021/11/19 02:09:28;;;;;;;32.78;25.02;;;11.80;99.90;;;;;;2071513;28;20029;-70
2021/11/19 02:10:47;;;;;;;36.75;25.50;;;11.90;99.90;;;;;;2071135;28;20109;-70
2021/11/19 02:12:06;;;;;;;32.03;25.95;;;11.80;99.90;;;;;;2071266;28;20018;-70
2021/11/19 02:13:54;;;;;;;34.55;27.08;;;11.80;99.90;;;;;;2071717;28;20065;-70
2021/11/19 02:15:14;;;;;;;40.85;27.38;;;11.80;99.90;;;;;;2070586;28;20382;-71
2021/11/19 02:16:26;;;;;;;35.45;25.98;;;11.80;99.90;;;;;;2070760;28;20619;-70
2021/11/19 02:17:28;;;;;;;35.33;26.92;;;11.70;99.90;;;;;;2071126;28;20409;-70
2021/11/19 02:18:33;;;;;;;33.75;26.08;;;11.70;99.90;;;;;;2070680;28;20026;-71
2021/11/19 02:19:38;;;;;;;38.28;26.92;;;11.80;99.90;;;;;;2071491;28;20029;-70
2021/11/19 02:20:41;;;;;;;39.30;27.08;;;11.80;99.90;;;;;;2071050;28;20026;-70
2021/11/19 02:21:56;;;;;;;35.95;26.55;;;11.80;99.90;;;;;;2071373;28;20057;-70
2021/11/19 02:23:10;;;;;;;35.17;26.45;;;11.80;99.90;;;;;;2071146;28;20033;-70
2021/11/19 02:24:21;;;;;;;35.10;26.13;;;11.80;99.90;;;;;;2071346;28;20100;-70
2021/11/19 02:25:27;;;;;;;40.85;26.63;;;11.80;99.90;;;;;;2071144;28;20022;-70
2021/11/19 02:26:34;;;;;;;37.10;26.73;;;11.80;99.90;;;;;;2071447;28;20022;-70
2021/11/19 02:27:50;;;;;;;40.85;27.75;;;11.80;99.90;;;;;;2071086;28;20107;-70
2021/11/19 02:28:53;;;;;;;40.90;26.77;;;11.80;99.90;;;;;;2071155;28;20041;-70
2021/11/19 02:29:58;;;;;;;36.78;26.95;;;11.80;99.90;;;;;;2070965;28;20056;-70
2021/11/19 02:31:05;;;;;;;40.25;28.63;;;11.80;99.90;;;;;;2071475;28;20113;-70
2021/11/19 02:32:11;;;;;;;38.75;27.52;;;11.80;99.90;;;;;;2071617;28;20057;-70
2021/11/19 02:33:14;;;;;;;41.67;26.92;;;11.80;99.90;;;;;;2071499;28;20058;-70
2021/11/19 02:34:15;;;;;;;34.90;27.27;;;11.80;99.90;;;;;;2071149;28;20034;-70
2021/11/19 02:35:24;;;;;;;35.75;26.42;;;11.80;99.90;;;;;;2071390;28;20466;-70
2021/11/19 02:36:40;;;;;;;36.55;26.75;;;11.80;99.90;;;;;;2071143;28;20446;-70
2021/11/19 02:38:05;;;;;;;41.33;27.08;;;11.80;99.90;;;;;;2069446;28;20100;-70
2021/11/19 02:39:14;;;;;;;41.28;27.52;;;11.70;99.90;;;;;;2070912;28;20022;-70
2021/11/19 02:40:20;;;;;;;36.13;26.08;;;11.70;99.90;;;;;;2063376;28;20038;-70
2021/11/19 02:41:23;;;;;;;39.08;27.65;;;11.70;99.90;;;;;;2070062;28;20080;-71
2021/11/19 02:42:29;;;;;;;38.60;28.08;;;11.70;99.90;;;;;;2071330;28;20029;-70
2021/11/19 02:43:36;;;;;;;39.13;28.02;;;11.80;99.90;;;;;;2071209;28;20029;-70
2021/11/19 02:44:40;;;;;;;38.90;27.38;;;11.80;99.90;;;;;;2072775;28;20369;-70
2021/11/19 02:45:46;;;;;;;39.92;27.65;;;11.80;99.90;;;;;;2064779;28;20030;-71
2021/11/19 02:46:52;;;;;;;39.28;28.02;;;11.80;99.90;;;;;;2064922;28;20077;-71
2021/11/19 02:47:52;;;;;;;37.00;28.25;;;11.80;99.90;;;;;;2068930;28;20533;-70
2021/11/19 02:48:53;;;;;;;38.42;28.20;;;11.80;99.90;;;;;;2072397;28;20360;-70
2021/11/19 02:49:55;;;;;;;37.95;29.02;;;11.80;99.90;;;;;;2072686;28;20466;-70
2021/11/19 02:50:58;;;;;;;37.80;28.48;;;11.80;99.90;;;;;;2072709;28;20060;-70
2021/11/19 02:52:00;;;;;;;39.53;27.48;;;11.80;99.90;;;;;;2072909;28;20025;-70
2021/11/19 02:53:00;;;;;;;35.40;26.60;;;11.80;99.90;;;;;;2072684;28;20086;-70
2021/11/19 02:54:04;;;;;;;40.05;27.85;;;11.80;99.90;;;;;;2072406;28;20378;-70
2021/11/19 02:55:09;;;;;;;35.83;27.23;;;11.80;99.90;;;;;;2072718;28;20474;-70
2021/11/19 02:56:12;;;;;;;37.00;27.45;;;11.80;99.90;;;;;;2072610;28;20038;-70
2021/11/19 02:57:13;;;;;;;37.88;27.75;;;11.80;99.90;;;;;;2073172;28;20033;-70
2021/11/19 02:58:22;;;;;;;36.17;27.40;;;11.80;99.90;;;;;;2072323;28;20486;-70
2021/11/19 02:59:23;;;;;;;38.70;27.35;;;11.80;99.90;;;;;;2072965;28;20375;-70
2021/11/19 03:00:29;;;;;;;36.45;27.50;;;11.80;99.90;;;;;;2072389;28;20030;-70
2021/11/19 03:01:45;;;;;;;34.90;27.15;;;11.80;99.90;;;;;;2072736;28;20108;-70
2021/11/19 03:02:46;;;;;;;35.35;26.20;;;11.80;99.90;;;;;;2072654;28;20021;-70
2021/11/19 03:04:05;;;;;;;36.28;27.00;;;11.80;99.90;;;;;;2072804;28;20482;-70
2021/11/19 03:05:13;;;;;;;34.75;25.83;;;11.80;99.90;;;;;;2072383;28;20056;-70
2021/11/19 03:06:14;;;;;;;37.83;26.58;;;11.80;99.90;;;;;;2072124;28;20034;-70
2021/11/19 03:07:15;;;;;;;37.63;25.98;;;11.80;99.90;;;;;;2068497;28;20040;-70
2021/11/19 03:08:16;;;;;;;36.40;26.52;;;11.80;99.90;;;;;;2071842;28;20022;-70
2021/11/19 03:09:21;;;;;;;35.05;27.13;;;11.80;99.90;;;;;;2072798;28;20032;-70
2021/11/19 03:10:35;;;;;;;45.40;27.52;;;11.80;99.90;;;;;;2072513;28;20128;-70
2021/11/19 03:11:36;;;;;;;33.90;27.20;;;11.80;99.90;;;;;;2071978;28;20026;-70
2021/11/19 03:12:37;;;;;;;34.08;26.40;;;11.80;99.90;;;;;;2071903;28;20115;-70
2021/11/19 03:13:38;;;;;;;33.45;25.55;;;11.80;99.90;;;;;;2067658;28;20093;-70
2021/11/19 03:14:41;;;;;;;33.13;26.80;;;11.80;99.90;;;;;;2072582;28;20041;-70
2021/11/19 03:15:45;;;;;;;34.58;26.42;;;11.80;99.90;;;;;;2072760;28;20112;-70
2021/11/19 03:16:46;;;;;;;34.15;27.10;;;11.80;99.90;;;;;;2072575;28;20049;-70
2021/11/19 03:17:47;;;;;;;33.58;26.77;;;11.80;99.90;;;;;;2072736;28;20565;-70
2021/11/19 03:18:47;;;;;;;38.50;26.90;;;11.80;99.90;;;;;;2071912;28;20033;-70
2021/11/19 03:19:48;;;;;;;37.78;28.45;;;11.80;99.90;;;;;;2071587;28;20025;-70
2021/11/19 03:20:52;;;;;;;33.42;27.58;;;11.80;99.90;;;;;;2071808;28;20026;-70
2021/11/19 03:21:53;;;;;;;38.17;28.00;;;11.80;99.90;;;;;;2069038;28;20026;-70
2021/11/19 03:22:55;;;;;;;34.85;27.38;;;11.80;99.90;;;;;;2072770;28;20041;-70
2021/11/19 03:23:57;;;;;;;38.90;28.25;;;11.80;99.90;;;;;;2072380;28;20415;-70
2021/11/19 03:24:58;;;;;;;33.85;27.15;;;11.80;99.90;;;;;;2072539;28;20022;-70
2021/11/19 03:26:01;;;;;;;35.78;27.55;;;11.80;99.90;;;;;;2072923;28;20113;-70
2021/11/19 03:27:02;;;;;;;35.58;28.05;;;11.80;99.90;;;;;;2072652;28;20060;-70
2021/11/19 03:28:06;;;;;;;37.58;27.48;;;11.80;99.90;;;;;;2071837;28;20026;-70
2021/11/19 03:29:08;;;;;;;37.38;27.88;;;11.80;99.90;;;;;;2071871;28;20528;-70
2021/11/19 03:30:12;;;;;;;35.40;27.27;;;11.80;99.90;;;;;;2072795;28;20037;-70
2021/11/19 03:31:15;;;;;;;34.28;26.85;;;11.80;99.90;;;;;;2072414;28;20034;-70
2021/11/19 03:32:20;;;;;;;35.83;26.23;;;11.80;99.90;;;;;;2072776;28;20026;-70
2021/11/19 03:33:25;;;;;;;36.88;26.10;;;11.80;99.90;;;;;;2072411;28;20469;-70
2021/11/19 03:34:26;;;;;;;34.47;26.40;;;11.80;99.90;;;;;;2072654;28;20476;-70
2021/11/19 03:35:28;;;;;;;38.65;27.05;;;11.80;99.90;;;;;;2070758;28;20489;-70
2021/11/19 03:36:29;;;;;;;34.72;26.08;;;11.80;99.90;;;;;;2071445;28;20042;-70
2021/11/19 03:37:30;;;;;;;33.20;27.00;;;11.80;99.90;;;;;;2072301;28;20473;-70
2021/11/19 03:38:33;;;;;;;30.50;25.08;;;11.80;99.90;;;;;;2071844;28;20583;-70
2021/11/19 03:39:34;;;;;;;40.40;27.20;;;11.90;99.90;;;;;;2072359;28;20018;-70
2021/11/19 03:40:39;;;;;;;32.25;27.25;;;11.80;99.90;;;;;;2072552;28;20104;-70
2021/11/19 03:41:41;;;;;;;33.58;26.00;;;11.90;99.90;;;;;;2072058;28;20026;-70
2021/11/19 03:42:42;;;;;;;31.42;27.27;;;11.90;99.90;;;;;;2072477;28;20045;-70
2021/11/19 03:44:07;;;;;;;34.45;27.38;;;11.90;99.90;;;;;;2072510;28;20025;-70
2021/11/19 03:45:11;;;;;;;31.50;26.75;;;11.90;99.90;;;;;;2068609;28;20098;-70
2021/11/19 03:46:16;;;;;;;31.60;26.40;;;11.90;99.90;;;;;;2072412;28;20022;-70
2021/11/19 03:47:23;;;;;;;32.55;27.90;;;11.90;99.90;;;;;;2072756;28;20508;-70
2021/11/19 03:48:25;;;;;;;33.88;27.25;;;11.90;99.90;;;;;;2071771;28;20040;-70
2021/11/19 03:49:28;;;;;;;30.55;26.30;;;11.90;99.90;;;;;;2072605;28;20048;-70
2021/11/19 03:50:37;;;;;;;35.72;27.33;;;11.90;99.90;;;;;;2072121;28;20105;-70
2021/11/19 03:51:51;;;;;;;35.50;26.27;;;11.90;99.90;;;;;;2070765;28;21215;-70
2021/11/19 03:52:52;;;;;;;34.20;27.67;;;11.90;99.90;;;;;;2072340;28;20417;-70
2021/11/19 03:53:53;;;;;;;34.38;26.48;;;11.90;99.90;;;;;;2065605;28;20409;-70
2021/11/19 03:54:57;;;;;;;35.58;27.80;;;11.90;99.90;;;;;;2072176;28;20112;-70
2021/11/19 03:55:59;;;;;;;36.75;27.08;;;11.90;99.90;;;;;;2072465;28;20048;-70
2021/11/19 03:57:00;;;;;;;31.65;26.23;;;11.90;99.90;;;;;;2078589;28;20136;-70
2021/11/19 03:58:02;;;;;;;32.60;27.10;;;11.90;99.90;;;;;;2072540;28;20505;-70
2021/11/19 03:59:05;;;;;;;36.47;27.20;;;11.90;99.90;;;;;;2071685;28;20386;-70
2021/11/19 04:00:10;;;;;;;34.60;28.05;;;11.90;99.90;;;;;;2072046;28;20332;-70
2021/11/19 04:01:16;;;;;;;30.55;26.30;;;11.90;99.90;;;;;;2072377;28;20049;-70
2021/11/19 04:02:18;;;;;;;32.75;26.10;;;11.90;99.90;;;;;;2072466;28;20026;-70
2021/11/19 04:03:19;;;;;;;32.20;26.10;;;11.90;99.90;;;;;;2072104;28;20026;-70
2021/11/19 04:04:23;;;;;;;31.75;27.77;;;11.90;99.90;;;;;;2072177;28;20022;-70
2021/11/19 04:05:26;;;;;;;32.10;26.52;;;11.90;99.90;;;;;;2071824;28;20030;-70
2021/11/19 04:06:27;;;;;;;35.92;27.85;;;11.90;99.90;;;;;;2072086;28;20421;-70
2021/11/19 04:07:28;;;;;;;28.67;24.52;;;11.90;99.90;;;;;;2072557;28;20090;-70
2021/11/19 04:08:28;;;;;;;34.10;27.35;;;11.90;99.90;;;;;;2071292;28;20172;-70
2021/11/19 04:09:30;;;;;;;31.08;26.40;;;11.90;99.90;;;;;;2072626;28;20038;-70
2021/11/19 04:10:32;;;;;;;37.28;27.67;;;11.90;99.90;;;;;;2072443;28;20529;-70
2021/11/19 04:11:33;;;;;;;31.85;27.58;;;12.00;99.90;;;;;;2072140;28;20068;-70
2021/11/19 04:12:35;;;;;;;34.15;27.98;;;11.90;99.90;;;;;;2072044;28;20393;-70
2021/11/19 04:13:36;;;;;;;34.95;26.73;;;12.00;99.90;;;;;;2072315;28;20061;-70
2021/11/19 04:14:37;;;;;;;32.17;26.70;;;12.00;99.90;;;;;;2071530;28;20057;-71
2021/11/19 04:15:43;;;;;;;33.70;26.95;;;11.90;99.90;;;;;;2063464;28;20161;-71
2021/11/19 04:16:46;;;;;;;36.88;27.75;;;11.90;99.90;;;;;;2070703;28;20036;-70
2021/11/19 04:17:47;;;;;;;34.50;27.23;;;11.90;99.90;;;;;;2071384;28;20022;-70
2021/11/19 04:18:47;;;;;;;32.20;26.63;;;11.90;99.90;;;;;;2070409;28;20042;-70
2021/11/19 04:19:48;;;;;;;33.97;26.75;;;11.90;99.90;;;;;;2072101;28;20021;-70
2021/11/19 04:20:51;;;;;;;32.22;26.77;;;12.00;99.90;;;;;;2071754;28;20022;-70
2021/11/19 04:21:54;;;;;;;32.67;27.65;;;11.90;99.90;;;;;;2072207;28;20022;-71
2021/11/19 04:22:55;;;;;;;38.70;28.35;;;12.00;99.90;;;;;;2072193;28;20467;-70
2021/11/19 04:23:57;;;;;;;37.00;29.40;;;11.90;99.90;;;;;;2072385;28;20029;-70
2021/11/19 04:25:00;;;;;;;35.60;27.70;;;12.00;99.90;;;;;;2072199;28;20022;-71
2021/11/19 04:26:03;;;;;;;37.03;28.85;;;12.00;99.90;;;;;;2072265;28;20492;-71
2021/11/19 04:27:05;;;;;;;33.30;27.20;;;12.00;99.90;;;;;;2072150;28;20446;-70
2021/11/19 04:28:06;;;;;;;33.97;27.45;;;12.00;99.90;;;;;;2071707;28;20025;-71
2021/11/19 04:29:07;;;;;;;34.72;28.60;;;12.00;99.90;;;;;;2079337;28;20033;-71
2021/11/19 04:30:12;;;;;;;35.58;29.98;;;12.00;99.90;;;;;;2079473;28;20068;-70
2021/11/19 04:31:14;;;;;;;35.75;28.08;;;12.00;99.90;;;;;;2071079;28;20080;-70
2021/11/19 04:32:21;;;;;;;31.35;27.95;;;12.00;99.90;;;;;;2071093;28;20026;-70
2021/11/19 04:33:22;;;;;;;33.53;27.48;;;12.00;99.90;;;;;;2068286;28;20117;-70
2021/11/19 04:34:22;;;;;;;38.03;29.52;;;12.00;99.90;;;;;;2071292;28;20025;-71
2021/11/19 04:35:24;;;;;;;36.20;28.73;;;12.00;99.90;;;;;;2071917;28;20092;-71
2021/11/19 04:36:25;;;;;;;32.83;29.20;;;12.00;99.90;;;;;;2071282;28;20034;-70
2021/11/19 04:37:26;;;;;;;36.05;28.60;;;12.00;99.90;;;;;;2070794;28;20057;-70
2021/11/19 04:38:27;;;;;;;37.20;29.02;;;12.00;99.90;;;;;;2071065;28;20534;-70
2021/11/19 04:39:28;;;;;;;35.40;29.17;;;12.00;99.90;;;;;;2071955;28;20071;-70
2021/11/19 04:40:30;;;;;;;37.92;29.50;;;12.00;99.90;;;;;;2072050;28;20034;-70
2021/11/19 04:41:30;;;;;;;36.38;28.70;;;12.00;99.90;;;;;;2072154;28;20022;-70
2021/11/19 04:42:32;;;;;;;34.60;29.05;;;12.00;99.90;;;;;;2071767;28;20021;-70
2021/11/19 04:43:35;;;;;;;33.47;28.90;;;12.00;99.90;;;;;;2071206;28;20029;-71
2021/11/19 04:44:36;;;;;;;34.03;28.52;;;12.00;99.90;;;;;;2070427;28;20498;-71
2021/11/19 04:45:38;;;;;;;34.13;28.52;;;12.00;99.90;;;;;;2066800;28;20026;-71
2021/11/19 04:46:40;;;;;;;34.30;27.75;;;12.00;99.90;;;;;;2074299;28;20032;-70
2021/11/19 04:47:41;;;;;;;34.05;27.75;;;12.00;99.90;;;;;;2071036;28;20030;-70
2021/11/19 04:48:42;;;;;;;31.10;27.52;;;12.00;99.90;;;;;;2063267;28;20023;-71
2021/11/19 04:49:43;;;;;;;34.60;26.58;;;12.00;99.90;;;;;;2063861;28;20034;-70
2021/11/19 04:50:46;;;;;;;30.52;27.30;;;12.00;99.90;;;;;;2067155;28;20038;-70
2021/11/19 04:51:48;;;;;;;34.17;26.58;;;12.00;99.90;;;;;;2068856;28;20593;-71
2021/11/19 04:52:50;;;;;;;35.35;27.40;;;12.00;99.90;;;;;;2068152;28;20076;-71
2021/11/19 04:53:51;;;;;;;32.70;26.73;;;12.00;99.90;;;;;;2064107;28;20466;-71
2021/11/19 04:54:52;;;;;;;31.55;25.95;;;12.00;99.90;;;;;;2068549;28;20029;-71
2021/11/19 04:55:54;;;;;;;33.42;27.10;;;12.10;99.90;;;;;;2068758;28;20053;-71
2021/11/19 04:56:55;;;;;;;33.70;26.80;;;12.00;99.90;;;;;;2066123;28;20022;-71
2021/11/19 04:57:56;;;;;;;31.52;27.27;;;12.00;99.90;;;;;;2068363;28;20050;-70
2021/11/19 04:58:57;;;;;;;32.85;26.85;;;12.00;99.90;;;;;;2070855;28;20527;-71
2021/11/19 04:59:57;;;;;;;32.47;25.70;;;12.10;99.90;;;;;;2069459;28;20103;-70
2021/11/19 05:01:07;;;;;;;35.95;27.30;;;12.10;99.90;;;;;;2066411;28;20030;-70
2021/11/19 05:02:11;;;;;;;31.87;27.03;;;12.00;99.90;;;;;;2065711;28;20367;-71
2021/11/19 05:03:13;;;;;;;32.60;27.13;;;12.10;99.90;;;;;;2065677;28;20257;-70
2021/11/19 05:04:15;;;;;;;33.53;26.45;;;12.00;99.90;;;;;;2063744;28;20026;-70
2021/11/19 05:05:18;;;;;;;34.83;26.98;;;12.10;99.90;;;;;;2066241;28;20095;-70
2021/11/19 05:06:19;;;;;;;35.92;28.20;;;12.10;99.90;;;;;;2070592;28;20495;-71
2021/11/19 05:07:20;;;;;;;36.97;27.15;;;12.10;99.90;;;;;;2070444;28;20080;-71
2021/11/19 05:08:21;;;;;;;32.85;25.58;;;12.10;99.90;;;;;;2068139;28;20097;-71
2021/11/19 05:09:21;;;;;;;35.78;27.85;;;12.10;99.90;;;;;;2073154;28;20030;-71
2021/11/19 05:10:22;;;;;;;31.88;25.58;;;12.10;99.90;;;;;;2079273;28;20928;-70
2021/11/19 05:11:28;;;;;;;31.27;26.30;;;12.10;99.90;;;;;;2071553;28;20034;-71
2021/11/19 05:12:42;;;;;;;30.10;24.70;;;12.10;99.90;;;;;;2071727;28;20040;-71
2021/11/19 05:13:43;;;;;;;29.55;24.92;;;12.10;99.90;;;;;;2071711;28;20030;-71
2021/11/19 05:14:47;;;;;;;28.67;24.67;;;12.00;99.90;;;;;;2071848;28;20080;-71
2021/11/19 05:15:50;;;;;;;32.88;26.60;;;12.10;99.90;;;;;;2063835;28;20367;-71
2021/11/19 05:16:51;;;;;;;29.80;25.70;;;12.10;99.90;;;;;;2070171;28;20046;-71
2021/11/19 05:17:52;;;;;;;29.98;26.67;;;12.10;99.90;;;;;;2071205;28;20028;-71
2021/11/19 05:18:52;;;;;;;32.67;25.63;;;12.10;99.90;;;;;;2071188;28;20054;-71
2021/11/19 05:19:53;;;;;;;29.38;26.20;;;12.10;99.90;;;;;;2069987;28;20058;-71
2021/11/19 05:20:56;;;;;;;29.38;25.52;;;12.10;99.90;;;;;;2068251;28;20494;-71
2021/11/19 05:21:57;;;;;;;29.35;24.98;;;12.10;99.90;;;;;;2066830;28;20455;-71
2021/11/19 05:22:58;;;;;;;30.85;24.90;;;12.10;99.90;;;;;;2070457;28;20017;-71
2021/11/19 05:24:00;;;;;;;30.85;24.25;;;12.10;99.90;;;;;;2070096;28;20030;-71
2021/11/19 05:25:01;;;;;;;32.95;26.30;;;12.10;99.90;;;;;;2071649;28;20022;-71
2021/11/19 05:26:02;;;;;;;34.33;26.80;;;12.10;99.90;;;;;;2070337;28;22085;-71